Time;durP1;ratioP1;P1;durP2;ratioP2;P2;SDS_P1;SDS_P2;PMS_P1;PMS_P2;Temp;Humidity;BMP_temperature;BMP_pressure;BME280_temperature;BME280_humidity;BME280_pressure;Samples;Min_cycle;Max_cycle;Signal;HPM_P1;HPM_P2
2023/06/13 00:01:04;;;;;;;5.10;2.30;;;;;;;12.58;83.60;95273.89;106596;1276;24248;-80
2023/06/13 00:03:53;;;;;;;3.80;2.50;;;;;;;12.50;84.29;95268.66;106575;1258;22511;-81
2023/06/13 00:06:23;;;;;;;5.10;2.20;;;;;;;12.55;84.41;95269.91;106530;1276;25478;-80
2023/06/13 00:08:51;;;;;;;2.80;2.10;;;;;;;12.63;84.07;95267.71;106622;1276;22528;-80
2023/06/13 00:11:19;;;;;;;3.60;2.10;;;;;;;12.62;83.61;95267.95;106399;1276;22524;-80
2023/06/13 00:13:47;;;;;;;7.60;2.10;;;;;;;12.60;83.76;95265.89;106561;1276;24332;-80
2023/06/13 00:16:15;;;;;;;3.00;2.10;;;;;;;12.63;83.72;95266.84;106514;1276;24302;-80
2023/06/13 00:18:44;;;;;;;5.90;2.20;;;;;;;12.64;83.50;95262.22;106533;1276;22637;-81
2023/06/13 00:21:12;;;;;;;3.00;2.10;;;;;;;12.63;83.43;95265.59;106580;1276;22510;-80
2023/06/13 00:23:40;;;;;;;5.10;2.50;;;;;;;12.62;83.21;95261.20;106547;1276;25382;-80
2023/06/13 00:26:09;;;;;;;2.80;2.00;;;;;;;12.66;83.36;95262.50;106573;1276;22517;-80
2023/06/13 00:28:38;;;;;;;4.80;2.30;;;;;;;12.59;82.74;95258.52;106636;1276;22632;-80
2023/06/13 00:31:06;;;;;;;6.20;2.10;;;;;;;12.48;82.80;95255.66;106657;1253;25639;-80
2023/06/13 00:33:34;;;;;;;5.40;2.30;;;;;;;12.49;83.20;95256.70;106524;1276;22529;-80
2023/06/13 00:36:03;;;;;;;3.70;2.20;;;;;;;12.51;83.48;95254.00;106624;1276;22751;-80
2023/06/13 00:38:32;;;;;;;4.30;2.10;;;;;;;12.58;83.46;95248.31;106569;1276;22534;-80
2023/06/13 00:41:02;;;;;;;3.30;2.00;;;;;;;12.58;82.81;95246.54;106584;1261;22664;-80
2023/06/13 00:43:31;;;;;;;3.70;2.40;;;;;;;12.54;82.58;95239.92;106573;1276;22644;-80
2023/06/13 00:46:02;;;;;;;3.40;2.30;;;;;;;12.50;82.45;95240.09;106748;1276;22638;-81
2023/06/13 00:48:32;;;;;;;4.30;2.40;;;;;;;12.40;82.55;95236.86;106579;1276;22529;-81
2023/06/13 00:51:02;;;;;;;4.70;2.90;;;;;;;12.30;82.47;95236.63;106634;1276;22663;-81
2023/06/13 00:53:31;;;;;;;5.50;2.40;;;;;;;12.28;82.43;95231.59;106623;1276;22521;-81
2023/06/13 00:56:02;;;;;;;4.30;2.80;;;;;;;12.25;82.40;95230.80;106608;1276;22511;-80
2023/06/13 00:58:30;;;;;;;5.40;2.40;;;;;;;12.22;82.44;95231.95;106792;1276;24447;-80
2023/06/13 01:00:59;;;;;;;8.90;2.60;;;;;;;12.13;82.82;95230.29;106597;1276;22530;-80
2023/06/13 01:03:29;;;;;;;6.20;2.50;;;;;;;12.09;83.37;95228.47;106664;1276;25347;-80
2023/06/13 01:05:58;;;;;;;3.40;2.60;;;;;;;12.09;84.34;95230.58;106532;1276;22517;-80
2023/06/13 01:08:27;;;;;;;3.20;2.40;;;;;;;12.09;84.26;95228.48;106580;1276;22632;-80
2023/06/13 01:11:13;;;;;;;3.40;2.70;;;;;;;12.07;84.04;95230.99;106559;1276;23154;-80
2023/06/13 01:14:04;;;;;;;3.50;2.60;;;;;;;12.03;85.29;95226.86;106391;1276;22909;-81
2023/06/13 01:16:39;;;;;;;7.50;2.80;;;;;;;12.03;85.37;95225.30;106522;1276;22535;-80
2023/06/13 01:19:18;;;;;;;4.20;2.80;;;;;;;12.03;85.73;95225.14;106560;1275;24193;-80
2023/06/13 01:21:49;;;;;;;4.90;2.50;;;;;;;11.96;85.43;95219.52;106612;1276;24673;-81
2023/06/13 01:24:34;;;;;;;3.60;2.20;;;;;;;11.91;84.93;95217.73;106574;1276;25385;-81
2023/06/13 01:27:04;;;;;;;4.00;2.40;;;;;;;11.87;84.74;95217.14;106572;1276;24232;-80
2023/06/13 01:29:34;;;;;;;7.80;2.30;;;;;;;11.87;84.76;95220.86;106582;1276;22544;-81
2023/06/13 01:32:04;;;;;;;5.00;2.20;;;;;;;11.88;85.91;95219.75;106535;1276;22637;-80
2023/06/13 01:34:33;;;;;;;5.40;2.40;;;;;;;11.90;86.36;95218.80;106527;1271;22671;-81
2023/06/13 01:37:02;;;;;;;6.80;2.40;;;;;;;11.94;85.96;95214.46;106656;1276;24250;-81
2023/06/13 01:39:34;;;;;;;6.60;2.70;;;;;;;11.97;87.13;95212.98;106541;1276;25275;-80
2023/06/13 01:42:02;;;;;;;5.00;2.30;;;;;;;11.99;87.00;95206.20;106523;1276;22525;-81
2023/06/13 01:44:33;;;;;;;7.60;2.10;;;;;;;12.07;87.10;95202.80;106601;1276;25282;-81
2023/06/13 01:47:22;;;;;;;7.50;2.40;;;;;;;12.10;87.36;95203.77;106585;1261;25329;-80
2023/06/13 01:50:06;;;;;;;3.00;2.20;;;;;;;12.10;86.91;95205.70;106548;1276;25351;-81
2023/06/13 01:52:47;;;;;;;5.20;2.40;;;;;;;12.08;86.78;95201.33;106588;1276;22639;-81
2023/06/13 01:55:36;;;;;;;5.60;2.20;;;;;;;12.14;86.52;95202.76;106545;1269;24111;-80
2023/06/13 01:58:13;;;;;;;3.60;2.30;;;;;;;12.23;86.89;95200.89;106679;1276;25246;-80
2023/06/13 02:00:43;;;;;;;5.20;2.30;;;;;;;12.37;87.24;95201.68;106625;1276;22525;-80
2023/06/13 02:03:13;;;;;;;6.50;3.30;;;;;;;12.51;87.25;95195.39;106580;1276;24210;-81
2023/06/13 02:05:41;;;;;;;7.50;4.30;;;;;;;12.65;86.53;95195.67;106599;1276;23181;-80
2023/06/13 02:08:10;;;;;;;9.10;4.30;;;;;;;12.61;85.55;95193.87;106589;1276;22523;-80
2023/06/13 02:10:38;;;;;;;6.00;3.30;;;;;;;12.57;86.10;95190.97;106540;1276;22524;-81
2023/06/13 02:13:07;;;;;;;6.00;3.20;;;;;;;12.59;86.35;95186.54;106610;1276;22517;-81
2023/06/13 02:15:36;;;;;;;7.10;2.30;;;;;;;12.59;86.31;95191.45;106548;1276;22569;-80
2023/06/13 02:18:06;;;;;;;6.20;2.80;;;;;;;12.53;85.72;95194.98;106575;1276;25387;-81
2023/06/13 02:20:35;;;;;;;4.30;2.90;;;;;;;12.57;86.17;95197.87;106724;1276;25406;-80
2023/06/13 02:23:03;;;;;;;3.50;2.20;;;;;;;12.64;86.01;95199.57;106569;1276;22521;-81
2023/06/13 02:25:35;;;;;;;4.90;2.10;;;;;;;12.69;85.72;95199.76;106574;1276;22661;-80
2023/06/13 02:28:04;;;;;;;5.70;2.20;;;;;;;12.69;85.34;95200.46;106603;1276;24256;-80
2023/06/13 02:30:32;;;;;;;5.40;2.20;;;;;;;12.63;85.74;95199.60;106692;1276;24235;-81
2023/06/13 02:33:01;;;;;;;3.30;2.20;;;;;;;12.57;85.98;95195.75;106730;1276;24296;-80
2023/06/13 02:35:30;;;;;;;7.40;2.10;;;;;;;12.55;85.94;95198.29;106607;1276;23923;-81
2023/06/13 02:37:58;;;;;;;4.00;1.80;;;;;;;12.54;86.40;95198.14;106661;1276;22565;-81
2023/06/13 02:40:28;;;;;;;5.30;2.60;;;;;;;12.58;86.49;95198.89;106763;1276;22516;-80
2023/06/13 02:42:57;;;;;;;8.20;2.60;;;;;;;12.68;87.12;95194.51;106641;1276;22530;-80
2023/06/13 02:45:25;;;;;;;11.00;2.70;;;;;;;12.78;86.80;95192.05;106524;1276;25464;-80
2023/06/13 02:47:54;;;;;;;8.20;2.40;;;;;;;12.80;86.60;95192.88;106536;1276;25403;-80
2023/06/13 02:50:23;;;;;;;6.30;2.60;;;;;;;12.73;86.02;95193.45;106605;1276;24446;-81
2023/06/13 02:52:52;;;;;;;4.60;3.20;;;;;;;12.59;86.47;95192.51;106583;1254;23906;-80
2023/06/13 02:55:20;;;;;;;4.10;2.40;;;;;;;12.58;87.15;95190.80;106596;1276;22654;-80
2023/06/13 02:57:49;;;;;;;3.10;2.80;;;;;;;12.60;87.32;95185.95;106626;1276;24240;-80
2023/06/13 03:00:17;;;;;;;4.90;2.80;;;;;;;12.63;87.22;95186.55;106521;1259;23879;-80
2023/06/13 03:02:50;;;;;;;4.00;2.20;;;;;;;12.64;87.23;95190.39;106527;1277;25246;-81
2023/06/13 03:05:20;;;;;;;3.40;2.50;;;;;;;12.65;87.33;95187.37;106591;1277;23026;-80
2023/06/13 03:07:50;;;;;;;5.80;3.40;;;;;;;12.56;87.46;95188.36;106542;1276;22531;-80
2023/06/13 03:10:23;;;;;;;;;;;;;;;12.48;87.70;95187.95;106661;1277;22518;-80
2023/06/13 03:12:52;;;;;;;4.10;2.90;;;;;;;12.40;87.93;95187.64;106603;1277;22526;-79
2023/06/13 03:15:22;;;;;;;4.10;2.60;;;;;;;12.35;87.96;95193.27;106535;1271;23873;-80
2023/06/13 03:17:51;;;;;;;5.50;3.00;;;;;;;12.34;87.99;95189.95;106561;1277;22540;-80
2023/06/13 03:20:21;;;;;;;5.50;2.90;;;;;;;12.33;88.63;95189.80;106431;1277;25272;-80
2023/06/13 03:22:52;;;;;;;3.50;2.70;;;;;;;12.37;88.48;95192.33;106716;1277;22530;-80
2023/06/13 03:25:21;;;;;;;7.30;2.90;;;;;;;12.40;88.10;95198.39;106735;1277;25323;-80
2023/06/13 03:27:50;;;;;;;5.20;3.40;;;;;;;12.46;88.30;95189.75;106463;1277;22550;-81
2023/06/13 03:30:18;;;;;;;6.30;3.50;;;;;;;12.54;88.41;95190.73;106515;1277;22577;-80
2023/06/13 03:32:47;;;;;;;4.10;3.00;;;;;;;12.61;88.07;95189.64;106725;1274;22654;-80
2023/06/13 03:35:15;;;;;;;5.30;2.70;;;;;;;12.65;87.78;95193.37;106733;1276;25464;-81
2023/06/13 03:37:44;;;;;;;4.40;2.40;;;;;;;12.72;87.64;95190.98;106585;1277;25251;-81
2023/06/13 03:40:12;;;;;;;3.30;2.50;;;;;;;12.75;87.24;95192.48;106519;1277;25226;-81
2023/06/13 03:42:41;;;;;;;4.50;2.70;;;;;;;12.80;87.22;95188.48;106369;1277;22540;-80
2023/06/13 03:45:09;;;;;;;3.60;2.50;;;;;;;12.86;87.14;95183.99;106564;1276;22516;-81
2023/06/13 03:47:37;;;;;;;4.30;2.70;;;;;;;12.90;86.67;95180.52;106413;1277;22569;-80
2023/06/13 03:50:07;;;;;;;7.90;2.80;;;;;;;12.94;86.71;95182.33;106564;1277;25211;-81
2023/06/13 03:52:35;;;;;;;6.20;2.40;;;;;;;12.98;86.89;95184.30;106505;1277;24373;-80
2023/06/13 03:55:04;;;;;;;4.40;3.00;;;;;;;13.00;86.87;95185.30;106495;1277;24016;-80
2023/06/13 03:57:35;;;;;;;4.50;2.70;;;;;;;13.03;86.52;95188.04;106575;1277;22647;-80
2023/06/13 04:00:05;;;;;;;4.10;2.70;;;;;;;13.06;86.81;95185.96;106481;1277;22549;-81
2023/06/13 04:02:40;;;;;;;8.40;3.00;;;;;;;13.20;87.17;95184.42;106508;1276;22510;-81
2023/06/13 04:05:13;;;;;;;5.30;3.00;;;;;;;13.34;86.72;95179.02;106600;1276;24095;-81
2023/06/13 04:07:42;;;;;;;7.60;3.10;;;;;;;13.44;86.33;95173.37;106768;1276;24242;-80
2023/06/13 04:10:11;;;;;;;5.30;2.60;;;;;;;13.52;86.12;95167.03;106498;1276;22770;-80
2023/06/13 04:12:40;;;;;;;6.20;3.20;;;;;;;13.62;85.80;95169.16;106646;1276;22574;-80
2023/06/13 04:15:08;;;;;;;4.80;3.00;;;;;;;13.73;85.96;95174.75;106591;1276;24215;-81
2023/06/13 04:17:37;;;;;;;6.30;3.60;;;;;;;13.81;85.60;95174.83;106597;1276;25403;-81
2023/06/13 04:20:09;;;;;;;5.70;3.70;;;;;;;13.84;85.21;95176.08;106599;1276;22520;-80
2023/06/13 04:22:37;;;;;;;7.10;3.80;;;;;;;13.82;84.62;95181.85;106632;1271;24399;-80
2023/06/13 04:25:05;;;;;;;5.10;4.00;;;;;;;13.73;84.28;95183.58;106526;1276;25420;-81
2023/06/13 04:27:34;;;;;;;8.50;3.60;;;;;;;13.65;84.62;95184.23;106575;1276;24216;-81
2023/06/13 04:30:03;;;;;;;6.60;3.70;;;;;;;13.59;84.62;95184.27;106582;1276;22684;-78
2023/06/13 04:32:33;;;;;;;6.50;3.60;;;;;;;13.50;84.64;95189.20;106565;1276;22588;-80
2023/06/13 04:35:02;;;;;;;8.50;4.60;;;;;;;13.38;85.22;95197.23;106596;1276;22578;-81
2023/06/13 04:37:30;;;;;;;9.00;5.30;;;;;;;13.30;85.42;95200.17;106633;1276;22569;-80
2023/06/13 04:39:59;;;;;;;6.70;4.40;;;;;;;13.25;85.80;95197.15;106641;1276;22517;-81
2023/06/13 04:42:27;;;;;;;8.30;4.50;;;;;;;13.26;86.17;95194.64;106588;1273;22535;-80
2023/06/13 04:44:59;;;;;;;7.80;4.30;;;;;;;13.31;86.45;95189.55;106630;1276;25525;-81
2023/06/13 04:47:33;;;;;;;6.40;4.20;;;;;;;13.34;86.15;95192.45;106655;1272;22587;-81
2023/06/13 04:50:22;;;;;;;7.50;4.20;;;;;;;13.35;86.15;95185.70;106604;1276;22539;-80
2023/06/13 04:52:53;;;;;;;7.30;3.90;;;;;;;13.34;86.01;95180.27;106547;1276;22529;-76
2023/06/13 04:55:25;;;;;;;;;;;;;;;13.37;86.19;95180.13;106639;1276;23214;-76
2023/06/13 04:57:54;;;;;;;9.70;4.00;;;;;;;13.39;86.66;95183.59;106625;1276;22562;-76
2023/06/13 05:00:24;;;;;;;6.70;3.90;;;;;;;13.41;86.47;95183.34;106571;1276;25299;-78
2023/06/13 05:02:55;;;;;;;7.10;4.20;;;;;;;13.42;86.51;95184.20;106522;1276;22646;-75
2023/06/13 05:05:24;;;;;;;6.40;3.90;;;;;;;13.50;86.68;95186.21;106572;1276;24343;-76
2023/06/13 05:07:59;;;;;;;6.30;3.70;;;;;;;13.63;86.89;95191.74;106577;1276;22512;-74
2023/06/13 05:10:28;;;;;;;4.00;3.50;;;;;;;13.70;86.16;95191.30;106576;1276;25426;-77
2023/06/13 05:12:57;;;;;;;4.20;3.40;;;;;;;13.73;86.25;95189.09;106775;1276;23060;-75
2023/06/13 05:15:26;;;;;;;4.90;3.80;;;;;;;13.79;86.40;95188.52;106704;1276;23146;-77
2023/06/13 05:17:54;;;;;;;5.70;3.80;;;;;;;13.87;86.24;95187.16;106692;1276;22526;-76
2023/06/13 05:20:30;;;;;;;8.40;3.80;;;;;;;13.99;86.33;95176.08;106552;1276;22528;-78
2023/06/13 05:23:01;;;;;;;7.00;4.00;;;;;;;14.09;85.96;95176.91;106607;1276;24053;-71
2023/06/13 05:25:30;;;;;;;20.10;4.40;;;;;;;14.14;85.32;95182.37;106626;1276;22644;-82
2023/06/13 05:28:01;;;;;;;6.20;3.80;;;;;;;14.19;85.27;95184.31;106569;1276;25485;-82
2023/06/13 05:30:30;;;;;;;10.30;3.90;;;;;;;14.21;84.83;95187.92;106583;1276;22516;-83
2023/06/13 05:32:58;;;;;;;8.60;3.70;;;;;;;14.23;85.21;95185.02;106706;1276;22526;-77
2023/06/13 05:35:26;;;;;;;6.70;4.30;;;;;;;14.31;85.00;95184.70;106532;1276;23015;-76
2023/06/13 05:37:56;;;;;;;7.40;3.90;;;;;;;14.36;85.01;95184.52;106495;1276;24087;-78
2023/06/13 05:40:25;;;;;;;6.40;4.50;;;;;;;14.42;84.92;95190.28;106719;1270;22616;-75
2023/06/13 05:42:53;;;;;;;5.70;4.30;;;;;;;14.46;84.20;95191.39;106588;1272;22548;-74
2023/06/13 05:45:21;;;;;;;7.90;4.40;;;;;;;14.48;84.17;95190.95;106530;1274;22523;-79
2023/06/13 05:47:50;;;;;;;11.50;5.10;;;;;;;14.46;84.14;95191.71;106706;1277;22523;-83
2023/06/13 05:50:18;;;;;;;8.30;4.60;;;;;;;14.43;84.22;95189.55;106744;1277;22512;-83
2023/06/13 05:52:47;;;;;;;10.40;5.00;;;;;;;14.46;84.29;95189.08;106691;1277;22517;-84
2023/06/13 05:55:17;;;;;;;7.80;4.70;;;;;;;14.43;84.14;95191.14;106763;1277;23955;-79
2023/06/13 05:57:45;;;;;;;9.60;4.60;;;;;;;14.47;84.30;95190.80;106724;1277;22520;-77
2023/06/13 06:00:14;;;;;;;8.30;5.30;;;;;;;14.48;84.22;95188.96;106681;1277;22528;-80
2023/06/13 06:02:45;;;;;;;9.10;4.50;;;;;;;14.50;84.00;95188.92;106557;1277;24237;-80
2023/06/13 06:05:15;;;;;;;6.90;4.60;;;;;;;14.50;83.82;95188.38;106678;1277;25221;-80
2023/06/13 06:07:45;;;;;;;6.70;4.60;;;;;;;14.40;83.79;95190.54;106300;1277;22638;-78
2023/06/13 06:10:14;;;;;;;9.20;4.90;;;;;;;14.39;84.35;95184.05;106463;1277;22530;-81
2023/06/13 06:12:43;;;;;;;9.60;4.70;;;;;;;14.43;84.45;95188.13;106449;1277;22633;-81
2023/06/13 06:15:12;;;;;;;10.00;4.60;;;;;;;14.50;84.44;95191.58;106397;1277;22517;-79
2023/06/13 06:17:40;;;;;;;7.90;4.70;;;;;;;14.55;84.32;95193.34;106699;1277;25354;-79
2023/06/13 06:20:09;;;;;;;8.80;4.60;;;;;;;14.53;84.09;95188.98;106623;1277;25341;-83
2023/06/13 06:22:37;;;;;;;6.90;4.50;;;;;;;14.58;84.22;95194.30;106685;1265;22523;-81
2023/06/13 06:25:08;;;;;;;7.70;4.30;;;;;;;14.64;84.32;95193.52;106426;1277;22657;-82
2023/06/13 06:27:37;;;;;;;7.60;4.60;;;;;;;14.72;84.26;95193.02;106665;1268;23745;-75
2023/06/13 06:30:06;;;;;;;6.20;3.70;;;;;;;14.78;83.86;95190.29;106500;1277;22641;-81
2023/06/13 06:32:34;;;;;;;7.40;4.60;;;;;;;14.81;83.80;95190.88;106594;1277;25282;-80
2023/06/13 06:35:03;;;;;;;6.30;3.70;;;;;;;14.89;83.86;95191.25;106425;1277;22518;-78
2023/06/13 06:37:32;;;;;;;9.60;4.30;;;;;;;14.95;83.06;95192.77;106770;1277;22791;-80
2023/06/13 06:40:01;;;;;;;7.50;3.40;;;;;;;14.94;82.66;95191.55;106654;1277;22519;-79
2023/06/13 06:42:29;;;;;;;5.20;3.20;;;;;;;14.90;82.66;95194.93;106502;1277;24338;-78
2023/06/13 06:45:21;;;;;;;4.40;3.50;;;;;;;14.85;82.83;95190.67;106548;1277;22520;-78
2023/06/13 06:47:50;;;;;;;4.50;2.80;;;;;;;14.88;83.21;95192.33;106492;1277;22543;-76
2023/06/13 06:50:19;;;;;;;4.00;2.60;;;;;;;14.97;83.24;95192.16;106532;1277;22513;-76
2023/06/13 06:52:48;;;;;;;5.30;2.90;;;;;;;15.04;83.48;95190.61;106584;1277;22537;-71
2023/06/13 06:55:16;;;;;;;3.40;2.80;;;;;;;15.16;83.69;95188.52;106581;1277;22528;-75
2023/06/13 06:57:44;;;;;;;3.40;2.60;;;;;;;15.24;83.41;95184.30;106652;1277;22639;-75
2023/06/13 07:00:14;;;;;;;4.70;3.30;;;;;;;15.28;82.84;95181.26;106505;1277;25356;-78
2023/06/13 07:02:43;;;;;;;3.00;2.50;;;;;;;15.29;83.15;95177.65;106351;1277;24204;-80
2023/06/13 07:05:12;;;;;;;4.00;2.80;;;;;;;15.25;82.24;95181.20;106530;1277;22516;-77
2023/06/13 07:07:42;;;;;;;3.30;2.90;;;;;;;15.31;82.75;95179.36;106486;1267;22523;-77
2023/06/13 07:10:11;;;;;;;4.70;3.40;;;;;;;15.41;82.91;95180.35;106470;1268;25343;-74
2023/06/13 07:12:40;;;;;;;5.00;3.50;;;;;;;15.43;82.58;95179.52;106738;1277;24255;-82
2023/06/13 07:15:08;;;;;;;6.70;3.90;;;;;;;15.40;82.16;95177.75;106652;1277;22554;-73
2023/06/13 07:17:36;;;;;;;4.80;3.40;;;;;;;15.40;82.26;95176.46;106623;1277;22720;-82
2023/06/13 07:20:08;;;;;;;4.80;3.70;;;;;;;15.43;82.31;95175.27;106652;1277;25276;-82
2023/06/13 07:22:37;;;;;;;4.40;3.80;;;;;;;15.47;82.11;95176.55;106713;1277;22527;-76
2023/06/13 07:25:06;;;;;;;5.60;4.00;;;;;;;15.45;81.91;95177.52;106753;1273;23896;-77
2023/06/13 07:27:34;;;;;;;6.30;3.90;;;;;;;15.41;81.73;95182.45;106745;1277;22528;-75
2023/06/13 07:30:04;;;;;;;5.60;3.60;;;;;;;15.32;81.59;95188.36;106680;1277;22650;-75
2023/06/13 07:32:32;;;;;;;5.30;3.60;;;;;;;15.27;81.43;95187.15;106794;1277;22833;-75
2023/06/13 07:35:02;;;;;;;4.90;3.50;;;;;;;15.18;81.50;95185.76;106508;1277;22618;-75
2023/06/13 07:37:34;;;;;;;5.60;3.90;;;;;;;15.18;82.17;95187.74;106695;1277;22740;-73
2023/06/13 07:40:05;;;;;;;3.70;3.40;;;;;;;15.14;82.43;95183.48;106563;1277;24455;-79
2023/06/13 07:42:34;;;;;;;3.90;3.50;;;;;;;15.06;82.80;95188.23;106365;1277;24067;-73
2023/06/13 07:45:03;;;;;;;3.70;3.40;;;;;;;15.08;83.00;95185.48;106514;1277;22531;-75
2023/06/13 07:47:31;;;;;;;5.20;4.00;;;;;;;15.12;83.13;95185.13;106628;1277;24386;-78
2023/06/13 07:49:59;;;;;;;4.90;3.80;;;;;;;15.20;83.54;95183.58;106599;1277;23894;-72
2023/06/13 07:52:27;;;;;;;4.10;3.30;;;;;;;15.27;83.51;95183.59;106536;1277;22528;-72
2023/06/13 07:54:56;;;;;;;3.10;2.80;;;;;;;15.32;83.58;95178.59;107011;1277;22669;-75
2023/06/13 07:57:24;;;;;;;4.20;2.50;;;;;;;15.40;83.51;95178.08;106513;1277;24200;-69
2023/06/13 08:00:16;;;;;;;3.50;2.80;;;;;;;15.44;83.24;95181.27;106507;1277;22705;-77
2023/06/13 08:02:45;;;;;;;2.70;2.30;;;;;;;15.52;83.52;95177.73;106534;1277;22643;-72
2023/06/13 08:05:15;;;;;;;3.70;2.60;;;;;;;15.61;83.65;95179.23;106563;1277;22651;-78
2023/06/13 08:07:44;;;;;;;4.70;2.70;;;;;;;15.67;83.06;95177.05;106544;1277;23888;-75
2023/06/13 08:10:12;;;;;;;4.20;2.70;;;;;;;15.61;82.42;95176.60;106524;1277;22665;-74
2023/06/13 08:12:41;;;;;;;3.60;2.40;;;;;;;15.56;82.95;95177.02;106671;1277;22529;-71
2023/06/13 08:15:10;;;;;;;3.30;2.60;;;;;;;15.59;83.62;95178.12;106269;1272;22668;-75
2023/06/13 08:17:41;;;;;;;2.40;2.10;;;;;;;15.64;83.34;95175.21;106518;1274;22519;-76
2023/06/13 08:20:10;;;;;;;2.10;1.90;;;;;;;15.68;82.81;95181.98;106649;1277;25348;-73
2023/06/13 08:22:40;;;;;;;2.00;1.80;;;;;;;15.71;83.35;95181.32;106554;1277;22861;-71
2023/06/13 08:25:09;;;;;;;3.00;2.20;;;;;;;15.75;83.18;95181.84;106728;1273;22531;-73
2023/06/13 08:27:39;;;;;;;2.20;2.00;;;;;;;15.78;83.35;95182.79;106779;1277;22536;-72
2023/06/13 08:30:08;;;;;;;2.10;1.90;;;;;;;15.83;83.11;95185.20;106745;1277;22523;-71
2023/06/13 08:32:38;;;;;;;3.20;2.10;;;;;;;15.88;82.63;95186.60;106793;1277;25503;-70
2023/06/13 08:35:07;;;;;;;2.50;2.00;;;;;;;15.82;82.63;95188.45;106418;1277;22527;-70
2023/06/13 08:37:35;;;;;;;3.40;1.90;;;;;;;15.83;83.03;95188.96;106640;1277;24354;-68
2023/06/13 08:40:08;;;;;;;2.20;1.90;;;;;;;15.87;83.27;95188.55;106544;1277;22519;-68
2023/06/13 08:42:37;;;;;;;2.40;1.70;;;;;;;15.85;82.14;95189.73;106795;1266;22532;-70
2023/06/13 08:45:07;;;;;;;2.40;2.00;;;;;;;15.76;82.75;95190.83;106702;1277;22762;-73
2023/06/13 08:47:35;;;;;;;2.00;1.80;;;;;;;15.85;83.85;95183.39;106737;1277;25326;-73
2023/06/13 08:50:07;;;;;;;2.70;2.00;;;;;;;15.93;83.28;95187.06;106484;1268;22522;-75
2023/06/13 08:52:41;;;;;;;1.80;1.70;;;;;;;16.02;83.45;95186.85;106611;1277;22533;-76
2023/06/13 08:55:15;;;;;;;2.60;1.50;;;;;;;16.07;83.54;95184.46;106652;1277;22636;-77
2023/06/13 08:58:05;;;;;;;1.70;1.50;;;;;;;16.03;83.57;95182.52;106613;1277;25305;-78
2023/06/13 09:00:35;;;;;;;1.60;1.40;;;;;;;15.97;82.97;95182.42;106554;1277;23101;-77
2023/06/13 09:03:09;;;;;;;1.70;1.30;;;;;;;15.93;82.82;95188.30;106488;1277;26514;-75
2023/06/13 09:05:38;;;;;;;1.40;1.30;;;;;;;15.92;82.91;95185.85;106442;1277;22569;-72
2023/06/13 09:08:07;;;;;;;1.50;1.40;;;;;;;15.89;83.31;95190.80;106627;1277;24437;-77
2023/06/13 09:10:56;;;;;;;1.50;1.20;;;;;;;15.90;83.64;95190.21;106419;1277;22522;-74
2023/06/13 09:13:27;;;;;;;1.60;1.30;;;;;;;15.93;83.68;95192.40;106538;1277;25469;-74
2023/06/13 09:15:56;;;;;;;1.50;1.30;;;;;;;15.91;83.72;95196.02;106372;1277;22566;-74
2023/06/13 09:18:25;;;;;;;1.10;1.00;;;;;;;15.84;83.25;95198.09;106411;1277;22542;-73
2023/06/13 09:20:54;;;;;;;2.30;1.10;;;;;;;15.75;83.96;95199.75;106683;1277;24358;-74
2023/06/13 09:23:22;;;;;;;0.80;0.80;;;;;;;15.72;84.79;95197.59;106544;1277;22578;-74
2023/06/13 09:25:52;;;;;;;0.80;0.80;;;;;;;15.70;83.94;95198.91;106433;1277;24316;-74
2023/06/13 09:28:27;;;;;;;1.50;0.70;;;;;;;15.76;84.72;95196.01;106577;1277;25505;-74
2023/06/13 09:30:58;;;;;;;0.70;0.70;;;;;;;15.85;84.81;95194.20;106414;1277;22529;-73
2023/06/13 09:33:28;;;;;;;1.70;0.60;;;;;;;15.97;84.91;95199.30;106432;1277;24240;-74
2023/06/13 09:35:56;;;;;;;3.70;0.60;;;;;;;16.09;85.00;95196.61;106558;1277;25327;-73
2023/06/13 09:38:29;;;;;;;0.60;0.60;;;;;;;16.25;84.90;95198.89;106603;1277;25277;-73
2023/06/13 09:40:57;;;;;;;0.50;0.50;;;;;;;16.39;84.25;95200.35;106539;1277;22530;-75
2023/06/13 09:43:26;;;;;;;0.50;0.50;;;;;;;16.50;83.49;95195.55;106480;1277;23047;-73
2023/06/13 09:45:55;;;;;;;0.50;0.50;;;;;;;16.60;82.84;95194.34;106554;1277;23895;-74
2023/06/13 09:48:23;;;;;;;0.60;0.60;;;;;;;16.56;81.86;95197.05;106560;1277;22548;-74
2023/06/13 09:50:53;;;;;;;0.50;0.50;;;;;;;16.62;82.84;95192.67;106568;1277;22533;-74
2023/06/13 09:53:22;;;;;;;0.60;0.50;;;;;;;16.70;83.09;95193.33;106509;1277;22621;-74
2023/06/13 09:55:50;;;;;;;0.80;0.60;;;;;;;16.74;82.86;95194.73;106766;1277;22615;-75
2023/06/13 09:58:18;;;;;;;1.20;1.10;;;;;;;16.74;82.25;95192.95;106634;1277;22518;-74
2023/06/13 10:01:00;;;;;;;2.50;1.90;;;;;;;16.67;82.45;95193.68;106703;1277;22600;-75
2023/06/13 10:03:30;;;;;;;1.50;1.40;;;;;;;16.54;82.08;95192.88;106441;1277;22516;-74
2023/06/13 10:05:59;;;;;;;1.60;1.10;;;;;;;16.46;82.40;95190.23;106502;1277;22507;-74
2023/06/13 10:08:27;;;;;;;1.10;1.00;;;;;;;16.42;83.20;95193.27;106522;1277;25238;-73
2023/06/13 10:11:02;;;;;;;1.10;0.90;;;;;;;16.42;83.36;95195.06;106482;1277;22530;-74
2023/06/13 10:13:35;;;;;;;1.60;0.80;;;;;;;16.41;82.77;95199.55;106532;1277;25271;-74
2023/06/13 10:16:05;;;;;;;1.00;0.80;;;;;;;16.29;82.21;95194.44;106450;1277;24198;-74
2023/06/13 10:18:39;;;;;;;1.20;0.90;;;;;;;16.10;82.32;95195.88;106092;1277;631645;-74
2023/06/13 10:21:11;;;;;;;1.80;1.20;;;;;;;16.06;83.71;95195.17;106551;1277;22527;-74
2023/06/13 10:23:48;;;;;;;2.70;1.80;;;;;;;16.02;83.76;95193.73;106603;1273;25312;-74
2023/06/13 10:26:36;;;;;;;5.40;3.20;;;;;;;15.99;83.64;95197.41;106567;1277;22521;-74
2023/06/13 10:29:35;;;;;;;6.40;3.20;;;;;;;15.92;83.69;95203.23;106550;1277;25537;-74
2023/06/13 10:32:09;;;;;;;7.40;3.30;;;;;;;15.82;84.41;95208.33;106704;1277;22546;-74
2023/06/13 10:34:55;;;;;;;3.90;2.70;;;;;;;15.76;84.81;95208.77;106678;1277;24349;-74
2023/06/13 10:37:26;;;;;;;6.30;3.10;;;;;;;15.76;85.43;95206.83;106705;1277;22539;-74
2023/06/13 10:40:03;;;;;;;5.30;3.40;;;;;;;15.73;85.52;95210.14;106719;1277;22527;-74
2023/06/13 10:42:40;;;;;;;6.30;3.70;;;;;;;15.83;85.95;95209.33;106531;1277;22528;-74
2023/06/13 10:45:16;;;;;;;8.60;3.50;;;;;;;16.03;86.33;95207.20;106553;1277;22525;-74
2023/06/13 10:47:44;;;;;;;2.80;2.20;;;;;;;16.10;85.57;95202.97;106710;1277;24237;-74
2023/06/13 10:50:14;;;;;;;1.60;1.40;;;;;;;16.14;85.60;95201.19;106611;1277;25271;-74
2023/06/13 10:52:46;;;;;;;1.30;1.20;;;;;;;16.28;85.81;95199.62;106525;1277;22518;-74
2023/06/13 10:55:29;;;;;;;1.30;1.20;;;;;;;16.42;85.19;95201.63;106599;1277;22527;-74
2023/06/13 10:57:59;;;;;;;0.70;0.70;;;;;;;16.36;84.55;95200.86;106549;1277;22674;-75
2023/06/13 11:00:27;;;;;;;1.00;0.80;;;;;;;16.35;85.06;95202.64;106504;1277;23926;-74
2023/06/13 11:02:58;;;;;;;0.70;0.70;;;;;;;16.33;84.80;95201.53;106581;1277;22671;-74
2023/06/13 11:05:27;;;;;;;0.90;0.90;;;;;;;16.29;85.04;95201.73;106582;1277;22920;-74
2023/06/13 11:08:25;;;;;;;0.70;0.70;;;;;;;16.31;84.71;95204.27;106386;1277;23927;-75
2023/06/13 11:10:55;;;;;;;0.60;0.60;;;;;;;16.32;84.68;95207.60;106576;1277;22633;-74
2023/06/13 11:13:26;;;;;;;0.50;0.50;;;;;;;16.32;84.27;95209.75;106668;1277;22546;-75
2023/06/13 11:15:56;;;;;;;1.60;1.50;;;;;;;16.28;84.40;95209.06;106723;1265;24172;-74
2023/06/13 11:18:26;;;;;;;1.80;1.60;;;;;;;16.24;85.04;95210.48;106789;1277;22892;-74
2023/06/13 11:20:59;;;;;;;1.20;1.10;;;;;;;16.16;85.26;95211.73;106659;1277;22608;-74
2023/06/13 11:23:34;;;;;;;0.80;0.70;;;;;;;16.06;85.76;95219.66;106656;1277;25312;-74
2023/06/13 11:26:03;;;;;;;0.80;0.80;;;;;;;15.97;86.09;95225.91;106543;1277;23642;-74
2023/06/13 11:28:32;;;;;;;1.10;1.00;;;;;;;15.86;86.04;95228.20;106592;1277;25354;-74
2023/06/13 11:31:04;;;;;;;1.60;0.70;;;;;;;15.73;86.11;95232.29;106562;1275;24384;-74
2023/06/13 11:33:40;;;;;;;1.00;1.00;;;;;;;15.62;85.76;95231.52;106574;1277;25198;-74
2023/06/13 11:36:09;;;;;;;1.00;0.90;;;;;;;15.50;86.31;95241.41;106731;1277;22520;-74
2023/06/13 11:38:42;;;;;;;0.90;0.90;;;;;;;15.41;87.10;95246.64;106599;1277;23187;-73
2023/06/13 11:41:11;;;;;;;1.20;0.70;;;;;;;15.26;86.99;95246.20;106588;1277;24565;-74